Moustier - Hors Challenge

Le jogging de la drève en fête à Moustier (9.00 km)

vendredi 08 septembre 2017
Le classement original se trouve sur : http://ctfrasnes.wixsite.com/collinesteamfrasnes/rsultats
 
LE JOGGING DE LA DRÈVE EN FÊTE - MOUSTIER
DISTANCE : 9.00 km
vendredi 08 septembre 2017
 
Place dos NOM Catégorie Pl/cat temps temps/km Vitesse
1 12 AMEUR ACHRAF EH 1 00:33:14 03:42 16.25
2 28 DUSAUSOIT EDDY V1 1 00:36:41 04:05 14.72
3 71 ANRYS STANISLAS SE 1 00:37:23 04:09 14.44
4 59 VINCHENT OLIVIER V1 2 00:37:48 04:12 14.29
5 65 DUCATTEEUW YANN SE 2 00:38:29 04:17 14.03
6 61 CARETTE FLORENT SE 3 00:38:56 04:20 13.87
7 2 CLAISSE JOËL V2 1 00:39:18 04:22 13.74
8 48 SOTTIAUX SÉBASTIEN V1 3 00:39:22 04:22 13.72
9 46 POZZA PIERRE V2 2 00:41:57 04:40 12.87
10 52 RICHART TOM EH 2 00:42:31 04:43 12.70
11 42 DELEM BENOÎT SE 4 00:42:38 04:44 12.67
12 10 DUJARDIN VIRGINIE A1 1 00:42:45 04:45 12.63
13 19 SNAUWAERT PATRICK V2 3 00:43:14 04:48 12.49
14 45 DERVAUX PHILIPPE V1 4 00:43:22 04:49 12.45
15 20 DE ROO STEVE EH 3 00:43:28 04:50 12.42
16 17 DIRICQ HÉLOÏSE ED 1 00:43:31 04:50 12.41
17 8 DUJARDIN CATHERINE DA 1 00:43:47 04:52 12.33
18 18 DIRICQ NOLWENN ED 2 00:44:05 04:54 12.25
19 36 PORTANT FRÉDÉRIC SE 5 00:44:05 04:54 12.25
20 21 DEMETS BERNARD V1 5 00:45:07 05:01 11.97
21 54 DE BRUYN DAVID SE 6 00:45:26 05:03 11.89
22 72 DECLEVE BENOÎT SE 7 00:46:04 05:07 11.72
23 23 LACMAN GAËL V1 6 00:46:39 05:11 11.58
24 63 NEF LUDOVIC V1 7 00:47:05 05:14 11.47
25 27 DAME JEAN-MARIE V2 4 00:47:38 05:18 11.34
26 16 SADIN GWENAËLLE A1 2 00:47:51 05:19 11.29
27 53 VANNESTE CHRISTOPHE V2 5 00:47:54 05:19 11.27
28 47 DECLERCQ PHILIPPE V2 6 00:48:42 05:25 11.09
29 33 DELCROIX VINCENT SE 8 00:48:58 05:26 11.03
30 51 DELWAELE VINCENT V1 8 00:48:59 05:27 11.02
31 64 DETRAIN STÉPHANE V1 9 00:49:58 05:33 10.81
32 57 DELAUNOY SIMON SE 9 00:50:11 05:35 10.76
33 55 DUMORTIER GEOFFREY SE 10 00:50:34 05:37 10.68
34 11 DUJARDIN AUXANNE ED 3 00:50:41 05:38 10.65
35 15 DIRICQ PASCAL V1 10 00:51:15 05:42 10.54
36 35 VANHOOLANDT MARTINE A2 1 00:51:27 05:43 10.50
37 34 DEWATTINES MICHEL V3 1 00:51:27 05:43 10.50
38 29 EVRARD FABIENNE A2 2 00:51:48 05:45 10.42
39 9 DAYE JEAN-ROBERT V3 2 00:52:01 05:47 10.38
40 43 DUFOUR MANUËL SE 11 00:52:20 05:49 10.32
41 30 DEBOURSE PHILIPPE V3 3 00:52:30 05:50 10.29
42 60 VAN DE WIELE NICOLAS SE 12 00:52:56 05:53 10.20
43 68 MDAGHRI HAKIM V1 11 00:53:21 05:56 10.12
44 69 MDAGHRI ISMAËL V1 12 00:53:22 05:56 10.12
45 22 BEKERS NOËL V4 1 00:53:24 05:56 10.11
46 56 DEMOL WIM V1 13 00:53:31 05:57 10.09
47 40 VAN DE WALLE LUC V3 4 00:54:10 06:01 9.97
48 31 COSSEZ NATHALIE A1 3 00:54:24 06:03 9.93
49 44 BERNARD CÉCILE A1 4 00:54:52 06:06 9.84
50 32 DELONVILLE DANIEL V3 5 00:55:10 06:08 9.79
51 70 DENYS MYRIAM A1 5 00:55:11 06:08 9.79
52 5 DELCAMBRE PHILIPPE V1 14 00:55:21 06:09 9.76
53 14 MASURE JEAN-YVES V2 7 00:55:32 06:10 9.72
54 3 DOGOT PIERRE V2 8 00:56:20 06:16 9.59
55 24 NYSSEN ALAIN V2 9 00:56:22 06:16 9.58
56 58 CARPENTIER CATHY A1 6 00:57:02 06:20 9.47
57 25 DELCOIGNE GEORGES V2 10 00:57:02 06:20 9.47
58 1 MALAISE BERNADETTE A2 3 00:59:03 06:34 9.14
59 26 DEMITRI COSIMO V2 11 00:59:06 06:34 9.14
60 67 PARENT LAURE DA 2 00:59:29 06:37 9.08
61 66 HISMANS DELPHINE DA 3 00:59:29 06:37 9.08
62 39 PEUTTE SYLVIE A1 7 01:00:04 06:40 8.99
63 37 VAN DRIESSCHE TAO EH 4 01:02:30 06:57 8.64
64 38 VAN DRIESSCHE DAMIEN V1 15 01:02:30 06:57 8.64
65 50 DELCOURTE COLETTE A2 4 01:03:36 07:04 8.49
66 41 DELSINNE ASTRID A2 5 01:03:36 07:04 8.49
67 6 VERHEYE CLAIRE DA 4 01:04:03 07:07 8.43
68 62 VANNEROM AUDREY DA 5 01:04:33 07:10 8.37
69 49 LEERSNYDER JOËL V4 2 01:04:34 07:10 8.36